createdAt,value
2018-11-20T00:02:25.659Z,98309.41
2018-11-20T00:05:04.696Z,98303.34
2018-11-20T00:07:52.104Z,98298.62
2018-11-20T00:10:39.337Z,98307.69
2018-11-20T00:13:21.618Z,98298.61
2018-11-20T00:16:10.337Z,98297.31
2018-11-20T00:19:01.688Z,98302.48
2018-11-20T00:21:52.997Z,98304.23
2018-11-20T00:24:40.605Z,98308.98
2018-11-20T00:27:27.835Z,98316.34
2018-11-20T00:30:15.320Z,98311.16
2018-11-20T00:32:55.962Z,98305.52
2018-11-20T00:35:43.271Z,98291.25
2018-11-20T00:38:40.737Z,98292.11
2018-11-20T00:41:28.048Z,98288.66
2018-11-20T00:44:22.917Z,98278.29
2018-11-20T00:47:10.078Z,98275.66
2018-11-20T00:50:01.456Z,98283.89
2018-11-20T00:52:48.444Z,98286.93
2018-11-20T00:56:18.046Z,98293.42
2018-11-20T00:58:59.233Z,98292.55
2018-11-20T01:01:46.534Z,98295.98
2018-11-20T01:04:39.742Z,98303.81
2018-11-20T01:07:46.760Z,98298.15
2018-11-20T01:10:44.427Z,98300.73
2018-11-20T01:13:35.644Z,98309.82
2018-11-20T01:16:23.057Z,98311.53
2018-11-20T01:19:10.202Z,98306.28
2018-11-20T01:22:17.014Z,98307.13
2018-11-20T01:25:05.674Z,98304.18
2018-11-20T01:28:03.330Z,98302.88
2018-11-20T01:30:50.471Z,98304.53
2018-11-20T01:33:37.794Z,98310.59
2018-11-20T01:36:19.930Z,98325.33
2018-11-20T01:39:23.888Z,98318.41
2018-11-20T01:42:04.268Z,98325.34
2018-11-20T01:44:51.372Z,98311.49
2018-11-20T01:47:43.276Z,98298.49
2018-11-20T01:50:40.802Z,98304.98
2018-11-20T01:53:32.580Z,98305.45
2018-11-20T01:56:21.095Z,98296.31
2018-11-20T01:59:01.148Z,98307.58
2018-11-20T02:01:49.999Z,98304.53
2018-11-20T02:04:37.289Z,98293.75
2018-11-20T02:07:30.981Z,98292.05
2018-11-20T02:10:18.047Z,98300.72
2018-11-20T02:13:40.926Z,98297.23
2018-11-20T02:16:28.128Z,98304.17
2018-11-20T02:19:16.884Z,98306.78
2018-11-20T02:22:02.974Z,98304.19
2018-11-20T02:24:57.528Z,98299.02
2018-11-20T02:28:04.187Z,98293.37
2018-11-20T02:31:04.765Z,98294.67
2018-11-20T02:33:53.248Z,98296.42
2018-11-20T02:36:43.965Z,98305.51
2018-11-20T02:39:31.252Z,98310.73
2018-11-20T02:42:35.112Z,98306.41
2018-11-20T02:45:29.771Z,98313.75
2018-11-20T02:48:36.492Z,98321.95
2018-11-20T02:51:43.225Z,98323.23
2018-11-20T02:54:30.403Z,98325.41
2018-11-20T02:57:11.980Z,98318.48
2018-11-20T03:00:03.459Z,98311.57
2018-11-20T03:03:03.942Z,98300.74
2018-11-20T03:05:44.307Z,98302.48
2018-11-20T03:08:35.755Z,98290.78
2018-11-20T03:11:33.264Z,98300.73
2018-11-20T03:14:20.414Z,98304.63
2018-11-20T03:17:09.054Z,98312.02
2018-11-20T03:19:56.690Z,98314.13
2018-11-20T03:22:44.134Z,98318.91
2018-11-20T03:26:09.742Z,98319.34
2018-11-20T03:29:31.879Z,98333.63
2018-11-20T03:32:35.537Z,98353.09
2018-11-20T03:35:22.651Z,98352.64
2018-11-20T03:38:09.905Z,98357.84
2018-11-20T03:41:01.235Z,98361.76
2018-11-20T03:43:48.169Z,98377.34
2018-11-20T03:46:48.826Z,98372.12
2018-11-20T03:49:55.610Z,98380.34
2018-11-20T03:52:59.129Z,98380.78
2018-11-20T03:55:44.759Z,98382.09
2018-11-20T03:58:36.013Z,98378.20
2018-11-20T04:01:27.543Z,98377.73
2018-11-20T04:04:08.404Z,98368.64
2018-11-20T04:07:08.788Z,98366.06
2018-11-20T04:09:49.097Z,98371.67
2018-11-20T04:12:52.910Z,98366.02
2018-11-20T04:15:59.581Z,98359.09
2018-11-20T04:18:59.906Z,98367.78
2018-11-20T04:21:47.127Z,98375.58
2018-11-20T04:24:34.670Z,98374.27
2018-11-20T04:27:21.987Z,98382.45
2018-11-20T04:30:37.453Z,98385.05
2018-11-20T04:34:02.937Z,98383.34
2018-11-20T04:37:03.951Z,98391.52
2018-11-20T04:39:51.215Z,98395.03
2018-11-20T04:42:38.349Z,98403.25
2018-11-20T04:45:25.975Z,98405.01
2018-11-20T04:48:23.507Z,98401.99
2018-11-20T04:51:08.432Z,98403.30
2018-11-20T04:54:05.042Z,98414.52
2018-11-20T04:57:02.697Z,98409.70
2018-11-20T05:00:06.340Z,98412.31
2018-11-20T05:02:44.260Z,98423.61
2018-11-20T05:05:42.019Z,98428.36
2018-11-20T05:08:45.710Z,98430.10
2018-11-20T05:11:22.077Z,98426.62
2018-11-20T05:14:26.058Z,98426.66
2018-11-20T05:17:17.652Z,98422.31
2018-11-20T05:20:21.396Z,98424.84
2018-11-20T05:23:08.992Z,98425.27
2018-11-20T05:26:03.537Z,98426.56
2018-11-20T05:28:50.480Z,98430.52
2018-11-20T05:31:37.690Z,98435.24
2018-11-20T05:34:29.152Z,98430.52
2018-11-20T05:37:16.169Z,98436.14
2018-11-20T05:40:03.343Z,98443.97
2018-11-20T05:42:54.847Z,98453.07
2018-11-20T05:45:43.440Z,98453.95
2018-11-20T05:48:47.078Z,98450.47
2018-11-20T05:51:50.900Z,98446.58
2018-11-20T05:54:38.602Z,98447.88
2018-11-20T05:57:26.452Z,98452.19
2018-11-20T06:00:05.669Z,98449.14
2018-11-20T06:02:52.850Z,98455.19
2018-11-20T06:05:39.577Z,98459.92
2018-11-20T06:08:40.040Z,98470.32
2018-11-20T06:11:47.046Z,98467.23
2018-11-20T06:14:44.930Z,98461.59
2018-11-20T06:17:31.929Z,98457.72
2018-11-20T06:20:09.187Z,98452.97
2018-11-20T06:22:57.840Z,98459.48
2018-11-20T06:25:52.653Z,98450.78
2018-11-20T06:28:41.383Z,98451.58
2018-11-20T06:31:28.492Z,98445.97
2018-11-20T06:34:15.733Z,98452.89
2018-11-20T06:37:10.164Z,98454.17
2018-11-20T06:40:03.373Z,98454.52
2018-11-20T06:42:57.813Z,98455.39
2018-11-20T06:45:54.091Z,98471.91
2018-11-20T06:48:59.324Z,98472.05
2018-11-20T06:51:50.864Z,98481.20
2018-11-20T06:54:38.306Z,98458.69
2018-11-20T06:57:38.844Z,98457.82
2018-11-20T07:00:39.862Z,98454.36
2018-11-20T07:03:46.530Z,98458.23
2018-11-20T07:06:44.122Z,98476.43
2018-11-20T07:09:50.928Z,98485.95
2018-11-20T07:12:54.689Z,98487.67
2018-11-20T07:15:42.256Z,98485.05
2018-11-20T07:18:30.349Z,98481.12
2018-11-20T07:21:19.046Z,98489.77
2018-11-20T07:24:04.269Z,98493.24
2018-11-20T07:26:51.607Z,98488.88
2018-11-20T07:29:38.985Z,98490.64
2018-11-20T07:32:33.508Z,98503.62
2018-11-20T07:35:31.362Z,98515.73
2018-11-20T07:38:22.802Z,98519.68
2018-11-20T07:41:09.921Z,98519.64
2018-11-20T07:43:57.446Z,98520.09
2018-11-20T07:46:44.402Z,98516.25
2018-11-20T07:49:35.613Z,98520.18
2018-11-20T07:52:23.006Z,98522.34
2018-11-20T07:55:10.255Z,98513.27
2018-11-20T07:57:57.542Z,98491.98
2018-11-20T08:00:51.942Z,98491.09
2018-11-20T08:03:43.017Z,98483.28
2018-11-20T08:06:30.336Z,98477.63
2018-11-20T08:09:27.756Z,98479.31
2018-11-20T08:12:14.795Z,98470.16
2018-11-20T08:15:01.971Z,98472.30
2018-11-20T08:18:00.125Z,98476.56
2018-11-20T08:20:44.876Z,98459.56
2018-11-20T08:23:42.235Z,98460.45
2018-11-20T08:26:33.619Z,98456.87
2018-11-20T08:29:20.863Z,98450.28
2018-11-20T08:32:19.286Z,98456.63
2018-11-20T08:35:14.757Z,98447.45
2018-11-20T08:38:09.133Z,98460.33
2018-11-20T08:40:56.431Z,98476.27
2018-11-20T08:43:43.583Z,98479.65
2018-11-20T08:46:41.064Z,98480.55
2018-11-20T08:49:45.011Z,98488.07
2018-11-20T08:52:48.665Z,98478.03
2018-11-20T08:55:35.834Z,98491.11
2018-11-20T08:58:23.721Z,98479.11
2018-11-20T09:01:10.951Z,98471.79
2018-11-20T09:04:17.939Z,98474.36
2018-11-20T09:07:12.198Z,98472.66
2018-11-20T09:09:59.204Z,98482.99
2018-11-20T09:12:46.520Z,98479.91
2018-11-20T09:15:35.192Z,98473.41
2018-11-20T09:18:22.251Z,98480.86
2018-11-20T09:21:04.732Z,98480.09
2018-11-20T09:23:50.094Z,98471.70
2018-11-20T09:26:49.306Z,98473.37
2018-11-20T09:29:40.715Z,98471.62
2018-11-20T09:32:19.270Z,98469.21
2018-11-20T09:35:11.041Z,98473.86
2018-11-20T09:38:08.287Z,98472.53
2018-11-20T09:41:12.993Z,98476.02
2018-11-20T09:44:14.804Z,98461.77
2018-11-20T09:47:21.394Z,98467.48
2018-11-20T09:50:22.275Z,98448.42
2018-11-20T09:53:09.842Z,98451.55
2018-11-20T09:56:07.241Z,98440.72
2018-11-20T09:59:11.074Z,98444.56
2018-11-20T10:01:59.600Z,98448.77
2018-11-20T10:04:46.387Z,98439.13
2018-11-20T10:07:50.044Z,98424.30
2018-11-20T10:10:47.265Z,98417.40
2018-11-20T10:13:42.161Z,98417.30
2018-11-20T10:16:35.140Z,98416.86
2018-11-20T10:19:29.707Z,98405.12
2018-11-20T10:22:27.283Z,98409.39
2018-11-20T10:25:24.973Z,98404.10
2018-11-20T10:28:28.788Z,98404.98
2018-11-20T10:31:16.158Z,98406.78
2018-11-20T10:34:19.977Z,98406.34
2018-11-20T10:37:23.399Z,98391.53
2018-11-20T10:40:07.130Z,98386.71
2018-11-20T10:43:04.582Z,98377.30
2018-11-20T10:46:40.619Z,98363.22
2018-11-20T10:49:37.320Z,98355.32
2018-11-20T10:52:25.227Z,98362.13
2018-11-20T10:55:19.233Z,98353.22
2018-11-20T10:58:05.696Z,98353.02
2018-11-20T11:00:52.310Z,98348.44
2018-11-20T11:03:38.991Z,98341.73
2018-11-20T11:06:25.856Z,98340.78
2018-11-20T11:09:12.319Z,98337.82
2018-11-20T11:12:18.560Z,98333.44
2018-11-20T11:15:18.603Z,98334.34
2018-11-20T11:18:21.665Z,98342.91
2018-11-20T11:21:07.276Z,98343.34
2018-11-20T11:23:53.525Z,98340.44
2018-11-20T11:26:47.426Z,98325.08
2018-11-20T11:29:35.254Z,98323.36
2018-11-20T11:32:31.875Z,98341.77
2018-11-20T11:35:22.221Z,98337.30
2018-11-20T11:38:22.023Z,98330.17
2018-11-20T11:41:05.015Z,98333.05
2018-11-20T11:43:52.793Z,98344.69
2018-11-20T11:46:40.466Z,98335.97
2018-11-20T11:49:46.340Z,98322.95
2018-11-20T11:52:52.592Z,98323.92
2018-11-20T11:55:39.225Z,98332.80
2018-11-20T11:58:35.968Z,98325.16
2018-11-20T12:01:23.271Z,98331.93
2018-11-20T12:06:50.599Z,98347.75
2018-11-20T12:09:38.187Z,98322.63
2018-11-20T12:12:23.293Z,98316.48
2018-11-20T12:15:08.799Z,98312.70
2018-11-20T12:17:53.596Z,98313.44
2018-11-20T12:20:33.733Z,98312.05
2018-11-20T12:23:20.016Z,98316.17
2018-11-20T12:26:06.813Z,98317.09
2018-11-20T12:28:57.960Z,98309.13
2018-11-20T12:31:45.540Z,98317.00
2018-11-20T12:34:51.358Z,98318.79
2018-11-20T12:37:37.838Z,98322.66
2018-11-20T12:40:29.001Z,98320.34
2018-11-20T12:43:35.663Z,98323.96
2018-11-20T12:46:16.393Z,98314.48
2018-11-20T12:49:07.408Z,98319.29
2018-11-20T12:51:58.101Z,98303.93
2018-11-20T12:54:44.517Z,98311.83
2018-11-20T12:57:19.245Z,98302.37
2018-11-20T13:00:12.734Z,98315.19
2018-11-20T13:02:59.340Z,98314.41
2018-11-20T13:05:59.372Z,98318.93
2018-11-20T13:09:06.115Z,98304.04
2018-11-20T13:11:53.895Z,98293.48
2018-11-20T13:14:50.871Z,98273.13
2018-11-20T13:17:33.637Z,98272.09
2018-11-20T13:20:29.634Z,98307.86
2018-11-20T13:23:16.954Z,98303.56
2018-11-20T13:26:03.396Z,98287.86
2018-11-20T13:28:51.110Z,98276.71
2018-11-20T13:31:44.537Z,98278.99
2018-11-20T13:34:44.182Z,98274.74
2018-11-20T13:37:27.342Z,98281.61
2018-11-20T13:40:23.989Z,98278.28
2018-11-20T13:43:04.281Z,98276.03
2018-11-20T13:45:43.743Z,98270.80
2018-11-20T13:48:30.774Z,98274.82
2018-11-20T13:51:08.959Z,98256.66
2018-11-20T13:54:00.762Z,98269.63
2018-11-20T13:56:52.606Z,98262.03
2018-11-20T13:59:40.416Z,98258.92
2018-11-20T14:02:26.798Z,98265.89
2018-11-20T14:05:13.216Z,98271.45
2018-11-20T14:08:19.477Z,98276.08
2018-11-20T14:11:06.119Z,98269.06
2018-11-20T14:13:46.669Z,98259.85
2018-11-20T14:16:34.538Z,98269.78
2018-11-20T14:19:21.124Z,98267.84
2018-11-20T14:22:24.008Z,98281.20
2018-11-20T14:25:06.458Z,98268.21
2018-11-20T14:28:04.057Z,98280.43
2018-11-20T14:31:01.016Z,98277.59
2018-11-20T14:34:06.865Z,98275.43
2018-11-20T14:36:58.015Z,98272.41
2018-11-20T14:39:48.634Z,98281.36
2018-11-20T14:42:39.368Z,98270.36
2018-11-20T14:45:45.043Z,98271.11
2018-11-20T14:48:31.416Z,98270.22
2018-11-20T14:51:23.482Z,98254.86
2018-11-20T14:54:09.667Z,98266.05
2018-11-20T14:57:03.758Z,98265.39
2018-11-20T14:59:50.649Z,98255.27
2018-11-20T15:02:37.109Z,98252.94
2018-11-20T15:05:37.434Z,98253.86
2018-11-20T15:08:22.130Z,98261.28
2018-11-20T15:11:25.416Z,98257.88
2018-11-20T15:14:28.215Z,98262.85
2018-11-20T15:17:16.700Z,98262.95
2018-11-20T15:20:03.258Z,98263.30
2018-11-20T15:22:53.823Z,98268.64
2018-11-20T15:25:49.125Z,98279.05
2018-11-20T15:28:37.012Z,98284.98
2018-11-20T15:31:36.813Z,98277.70
2018-11-20T15:34:33.856Z,98285.11
2018-11-20T15:37:24.432Z,98275.03
2018-11-20T15:40:10.887Z,98277.28
2018-11-20T15:43:17.045Z,98283.93
2018-11-20T15:46:04.905Z,98290.89
2018-11-20T15:48:49.832Z,98283.61
2018-11-20T15:51:43.793Z,98282.38
2018-11-20T15:54:30.147Z,98279.72
2018-11-20T15:57:35.823Z,98274.12
2018-11-20T16:00:26.627Z,98281.55
2018-11-20T16:03:29.753Z,98284.05
2018-11-20T16:06:23.892Z,98278.45
2018-11-20T16:09:11.605Z,98270.56
2018-11-20T16:11:58.279Z,98276.14
2018-11-20T16:14:44.461Z,98262.19
2018-11-20T16:17:25.133Z,98246.88
2018-11-20T16:20:25.163Z,98251.55
2018-11-20T16:23:19.022Z,98255.02
2018-11-20T16:26:06.854Z,98271.31
2018-11-20T16:29:00.746Z,98261.23
2018-11-20T16:31:47.398Z,98276.08
2018-11-20T16:34:27.507Z,98260.67
2018-11-20T16:37:17.978Z,98267.31
2018-11-20T16:40:04.206Z,98273.52
2018-11-20T16:42:52.038Z,98267.48
2018-11-20T16:45:37.823Z,98270.21
2018-11-20T16:48:25.747Z,98279.37
2018-11-20T16:51:16.889Z,98278.84
2018-11-20T16:54:19.716Z,98271.03
2018-11-20T16:57:25.417Z,98266.40
2018-11-20T17:00:12.071Z,98273.34
2018-11-20T17:02:58.631Z,98288.45
2018-11-20T17:05:52.356Z,98287.88
2018-11-20T17:08:58.095Z,98289.97
2018-11-20T17:11:48.861Z,98274.24
2018-11-20T17:14:37.149Z,98278.09
2018-11-20T17:17:23.363Z,98278.78
2018-11-20T17:20:07.406Z,98272.84
2018-11-20T17:23:08.333Z,98289.37
2018-11-20T17:25:53.716Z,98279.96
2018-11-20T17:28:36.058Z,98269.75
2018-11-20T17:31:31.503Z,98264.70
2018-11-20T17:34:18.043Z,98273.48
2018-11-20T17:37:11.840Z,98272.18
2018-11-20T17:39:59.720Z,98246.64
2018-11-20T17:42:46.342Z,98228.52
2018-11-20T17:45:32.033Z,98241.11
2018-11-20T17:48:18.966Z,98247.56
2018-11-20T17:51:21.978Z,98244.80
2018-11-20T17:54:12.303Z,98236.47
2018-11-20T17:57:04.489Z,98235.17
2018-11-20T18:00:01.178Z,98236.10
2018-11-20T18:02:58.178Z,98231.52
2018-11-20T18:05:44.589Z,98234.28
2018-11-20T18:08:25.468Z,98229.15
2018-11-20T18:11:11.743Z,98235.20
2018-11-20T18:13:53.385Z,98242.95
2018-11-20T18:16:40.463Z,98245.20
2018-11-20T18:19:27.131Z,98255.11
2018-11-20T18:22:24.110Z,98267.66
2018-11-20T18:25:18.018Z,98252.06
2018-11-20T18:28:03.598Z,98241.66
2018-11-20T18:31:06.760Z,98241.21
2018-11-20T18:33:54.587Z,98246.31
2018-11-20T18:36:54.877Z,98243.25
2018-11-20T18:39:48.544Z,98223.71
2018-11-20T18:42:38.411Z,98221.03
2018-11-20T18:45:33.131Z,98229.66
2018-11-20T18:48:26.549Z,98246.48
2018-11-20T18:51:12.913Z,98254.70
2018-11-20T18:54:03.117Z,98270.17
2018-11-20T18:56:50.745Z,98272.80
2018-11-20T18:59:44.099Z,98272.07
2018-11-20T19:02:34.809Z,98257.86
2018-11-20T19:05:22.760Z,98260.11
2018-11-20T19:08:11.902Z,98264.97
2018-11-20T19:10:59.797Z,98262.92
2018-11-20T19:13:53.893Z,98257.34
2018-11-20T19:16:36.444Z,98260.31
2018-11-20T19:19:24.579Z,98241.72
2018-11-20T19:22:10.993Z,98236.89
2018-11-20T19:24:56.220Z,98242.03
2018-11-20T19:27:44.621Z,98249.27
2018-11-20T19:30:38.344Z,98236.66
2018-11-20T19:33:30.911Z,98244.32
2018-11-20T19:36:24.670Z,98232.17
2018-11-20T19:39:11.557Z,98228.29
2018-11-20T19:42:08.224Z,98228.98
2018-11-20T19:44:58.962Z,98238.12
2018-11-20T19:47:45.762Z,98244.73
2018-11-20T19:50:36.559Z,98245.20
2018-11-20T19:53:30.372Z,98250.87
2018-11-20T19:56:16.914Z,98251.27
2018-11-20T19:59:10.898Z,98246.92
2018-11-20T20:01:57.272Z,98224.63
2018-11-20T20:04:43.374Z,98209.53
2018-11-20T20:07:37.089Z,98216.22
2018-11-20T20:10:37.319Z,98215.27
2018-11-20T20:13:28.737Z,98209.57
2018-11-20T20:16:10.750Z,98193.81
2018-11-20T20:18:57.127Z,98192.88
2018-11-20T20:21:43.934Z,98186.36
2018-11-20T20:24:30.488Z,98198.44
2018-11-20T20:27:17.013Z,98198.77
2018-11-20T20:30:03.804Z,98193.41
2018-11-20T20:32:57.601Z,98182.17
2018-11-20T20:35:48.042Z,98183.98
2018-11-20T20:38:35.944Z,98190.62
2018-11-20T20:41:26.895Z,98187.03
2018-11-20T20:44:13.420Z,98188.33
2018-11-20T20:47:00.299Z,98180.84
2018-11-20T20:49:50.953Z,98181.72
2018-11-20T20:52:37.587Z,98189.02
2018-11-20T20:55:28.951Z,98169.59
2018-11-20T20:58:19.426Z,98168.98
2018-11-20T21:01:06.061Z,98175.35
2018-11-20T21:03:52.823Z,98185.75
2018-11-20T21:06:36.833Z,98189.98
2018-11-20T21:09:26.818Z,98183.98
2018-11-20T21:12:14.701Z,98192.58
2018-11-20T21:15:08.296Z,98181.81
2018-11-20T21:17:54.403Z,98178.05
2018-11-20T21:20:41.075Z,98173.32
2018-11-20T21:23:21.220Z,98171.98
2018-11-20T21:26:11.896Z,98165.05
2018-11-20T21:29:17.533Z,98172.77
2018-11-20T21:32:03.773Z,98161.92
2018-11-20T21:34:55.135Z,98173.20
2018-11-20T21:37:36.713Z,98171.14
2018-11-20T21:40:40.305Z,98161.64
2018-11-20T21:43:37.017Z,98168.62
2018-11-20T21:46:23.626Z,98167.31
2018-11-20T21:49:17.565Z,98153.52
2018-11-20T21:52:14.305Z,98160.78
2018-11-20T21:55:04.588Z,98166.47
2018-11-20T21:57:49.037Z,98171.63
2018-11-20T22:00:50.542Z,98157.03
2018-11-20T22:03:37.177Z,98162.63
2018-11-20T22:06:24.020Z,98158.83
2018-11-20T22:09:24.161Z,98154.16
2018-11-20T22:12:14.809Z,98142.02
2018-11-20T22:14:56.642Z,98142.08
2018-11-20T22:17:50.460Z,98145.45
2018-11-20T22:20:50.003Z,98135.03
2018-11-20T22:23:43.773Z,98139.33
2018-11-20T22:26:22.967Z,98141.77
2018-11-20T22:29:19.841Z,98139.75
2018-11-20T22:32:06.412Z,98129.42
2018-11-20T22:34:54.991Z,98124.53
2018-11-20T22:37:45.482Z,98128.89
2018-11-20T22:40:42.395Z,98134.08
2018-11-20T22:43:31.242Z,98129.36
2018-11-20T22:46:36.978Z,98127.72
2018-11-20T22:49:40.338Z,98114.38
2018-11-20T22:52:19.718Z,98108.85
2018-11-20T22:55:10.441Z,98117.59
2018-11-20T22:58:08.960Z,98113.55
2018-11-20T23:01:03.969Z,98114.69
2018-11-20T23:03:45.151Z,98113.94
2018-11-20T23:06:31.668Z,98122.36
2018-11-20T23:09:00.542Z,98115.50
2018-11-20T23:11:29.277Z,98112.75
2018-11-20T23:13:57.969Z,98103.63
2018-11-20T23:16:26.803Z,98091.16
2018-11-20T23:18:55.550Z,98085.06
2018-11-20T23:21:24.452Z,98075.36
2018-11-20T23:23:53.252Z,98064.73
2018-11-20T23:26:22.112Z,98062.10
2018-11-20T23:28:50.956Z,98077.23
2018-11-20T23:31:19.833Z,98070.27
2018-11-20T23:33:48.772Z,98066.59
2018-11-20T23:36:17.501Z,98062.23
2018-11-20T23:38:46.395Z,98068.55
2018-11-20T23:41:15.082Z,98069.20
2018-11-20T23:43:43.879Z,98069.77
2018-11-20T23:46:12.687Z,98075.05
2018-11-20T23:48:41.592Z,98077.63
2018-11-20T23:51:10.450Z,98087.64
2018-11-20T23:53:39.332Z,98097.95
2018-11-20T23:56:08.127Z,98085.20
2018-11-20T23:58:36.999Z,98069.66
